Time;durP1;ratioP1;P1;durP2;ratioP2;P2;SDS_P1;SDS_P2;PMS_P1;PMS_P2;Temp;Humidity;BMP_temperature;BMP_pressure;BME280_temperature;BME280_humidity;BME280_pressure;Samples;Min_cycle;Max_cycle;Signal;HPM_P1;HPM_P2
2021/12/10 00:02:33;;;;;;;0.70;0.50;;;4.40;99.90;;;;;;5053902;28;20431;-69
2021/12/10 00:04:58;;;;;;;0.80;0.70;;;4.40;99.90;;;;;;5069480;28;20636;-70
2021/12/10 00:07:25;;;;;;;0.70;0.50;;;4.40;99.90;;;;;;5053944;28;20409;-70
2021/12/10 00:09:58;;;;;;;0.70;0.40;;;4.30;99.90;;;;;;5053998;28;20232;-69
2021/12/10 00:12:28;;;;;;;0.73;0.60;;;4.20;99.90;;;;;;5053836;28;20452;-70
2021/12/10 00:14:55;;;;;;;0.70;0.50;;;4.10;99.90;;;;;;5053654;28;20454;-70
2021/12/10 00:17:22;;;;;;;0.70;0.50;;;4.10;99.90;;;;;;5053613;28;20405;-70
2021/12/10 00:19:51;;;;;;;0.80;0.60;;;4.00;99.90;;;;;;5053552;28;20410;-69
2021/12/10 00:22:22;;;;;;;0.70;0.43;;;3.90;99.90;;;;;;5052993;28;20437;-70
2021/12/10 00:24:49;;;;;;;0.70;0.50;;;3.90;99.90;;;;;;5068587;28;20409;-70
2021/12/10 00:27:26;;;;;;;0.70;0.50;;;3.80;99.90;;;;;;5053445;28;20422;-70
2021/12/10 00:29:52;;;;;;;0.70;0.40;;;3.80;99.90;;;;;;5053536;28;20416;-70
2021/12/10 00:32:30;;;;;;;0.63;0.50;;;3.70;99.90;;;;;;5053277;28;20483;-70
2021/12/10 00:34:57;;;;;;;0.70;0.50;;;3.70;99.90;;;;;;5054162;28;20404;-69
2021/12/10 00:37:24;;;;;;;0.70;0.50;;;3.70;99.90;;;;;;5054850;28;20401;-69
2021/12/10 00:39:53;;;;;;;0.70;0.50;;;3.70;99.90;;;;;;5054456;28;20915;-70
2021/12/10 00:42:23;;;;;;;1.73;1.63;;;3.70;99.90;;;;;;5054895;28;20428;-70
2021/12/10 00:44:50;;;;;;;0.70;0.50;;;3.70;99.90;;;;;;5053935;28;20458;-69
2021/12/10 00:47:16;;;;;;;0.70;0.50;;;3.70;99.90;;;;;;5052322;28;20991;-70
2021/12/10 00:49:42;;;;;;;0.70;0.50;;;3.70;99.90;;;;;;5053263;28;20405;-70
2021/12/10 00:52:10;;;;;;;0.70;0.70;;;3.70;99.90;;;;;;5052956;28;20540;-70
2021/12/10 00:54:36;;;;;;;0.70;0.50;;;3.70;99.90;;;;;;5053053;28;20497;-70
2021/12/10 00:57:04;;;;;;;0.70;0.50;;;3.70;99.90;;;;;;5051374;28;20764;-70
2021/12/10 00:59:30;;;;;;;0.70;0.60;;;3.70;99.90;;;;;;5052708;28;20544;-70
2021/12/10 01:01:56;;;;;;;0.70;0.50;;;3.80;99.90;;;;;;5051755;28;20496;-70
2021/12/10 01:04:26;;;;;;;0.70;0.50;;;3.80;99.90;;;;;;5054546;28;20163;-69
2021/12/10 01:06:54;;;;;;;0.70;0.50;;;3.80;99.90;;;;;;5051913;28;20491;-69
2021/12/10 01:09:27;;;;;;;0.70;0.50;;;3.90;99.90;;;;;;5053618;28;20407;-70
2021/12/10 01:11:59;;;;;;;0.70;0.47;;;3.90;99.90;;;;;;5052542;28;20419;-69
2021/12/10 01:14:54;;;;;;;0.70;0.50;;;3.80;99.90;;;;;;5052594;28;20405;-70
2021/12/10 01:26:06;;;;;;;0.70;0.40;;;3.80;99.90;;;;;;5052282;28;20404;-69
2021/12/10 01:28:32;;;;;;;0.70;0.50;;;3.80;99.90;;;;;;5052451;28;20496;-70
2021/12/10 01:30:57;;;;;;;0.70;0.70;;;3.80;99.90;;;;;;5052051;28;20508;-69
2021/12/10 01:33:23;;;;;;;0.60;0.50;;;3.80;99.90;;;;;;5052303;28;20206;-70
2021/12/10 01:35:54;;;;;;;0.70;0.43;;;3.80;99.90;;;;;;5052007;28;20178;-70
2021/12/10 01:38:20;;;;;;;1.43;1.33;;;3.80;99.90;;;;;;5052429;28;20316;-69
2021/12/10 01:40:49;;;;;;;0.70;0.50;;;3.90;99.90;;;;;;5050813;28;20413;-69
2021/12/10 01:43:22;;;;;;;0.80;0.67;;;3.90;99.90;;;;;;5052068;28;20408;-70
2021/12/10 01:46:01;;;;;;;0.83;0.73;;;3.90;99.90;;;;;;5051767;28;20825;-70
2021/12/10 01:48:31;;;;;;;0.63;0.40;;;4.00;99.90;;;;;;5052168;28;20405;-69
2021/12/10 01:50:58;;;;;;;0.70;0.50;;;4.00;99.90;;;;;;5051948;28;20435;-70
2021/12/10 01:53:27;;;;;;;0.70;0.40;;;4.10;99.90;;;;;;5052031;28;20814;-70
2021/12/10 01:55:55;;;;;;;0.70;0.50;;;4.10;99.90;;;;;;5051649;28;20429;-70
2021/12/10 01:58:23;;;;;;;0.80;0.70;;;4.10;99.90;;;;;;5051885;28;20400;-70
2021/12/10 02:00:54;;;;;;;0.70;0.47;;;4.00;99.90;;;;;;5051871;28;20428;-70
2021/12/10 02:03:21;;;;;;;0.60;0.40;;;4.00;99.90;;;;;;5067411;28;20936;-69
2021/12/10 02:05:47;;;;;;;0.70;0.50;;;4.00;99.90;;;;;;5050236;28;20452;-70
2021/12/10 02:08:12;;;;;;;0.67;0.40;;;4.00;99.90;;;;;;5051887;28;20409;-70
2021/12/10 02:10:39;;;;;;;1.10;1.00;;;4.10;99.90;;;;;;5051685;28;20191;-70
2021/12/10 02:13:04;;;;;;;0.83;0.60;;;4.00;99.90;;;;;;5051850;28;20201;-69
2021/12/10 02:15:30;;;;;;;0.70;0.40;;;3.90;99.90;;;;;;5051332;28;20902;-69
2021/12/10 02:17:58;;;;;;;0.63;0.40;;;3.90;99.90;;;;;;5051851;28;20238;-70
2021/12/10 02:20:31;;;;;;;1.20;1.10;;;3.90;99.90;;;;;;5057885;28;20424;-70
2021/12/10 02:22:57;;;;;;;0.70;0.57;;;3.70;99.90;;;;;;5058348;28;20410;-70
2021/12/10 02:25:26;;;;;;;0.70;0.53;;;3.70;99.90;;;;;;5058041;28;20405;-69
2021/12/10 02:27:52;;;;;;;0.70;0.50;;;3.60;99.90;;;;;;5058333;28;20173;-70
2021/12/10 02:30:21;;;;;;;0.70;0.50;;;3.50;99.90;;;;;;5058129;28;20404;-69
2021/12/10 02:32:47;;;;;;;0.70;0.50;;;3.40;99.90;;;;;;5058073;28;20460;-69
2021/12/10 02:35:15;;;;;;;0.70;0.50;;;3.40;99.90;;;;;;5056616;28;20949;-69
2021/12/10 02:37:42;;;;;;;0.73;0.73;;;3.40;99.90;;;;;;5056908;28;20296;-70
2021/12/10 02:40:10;;;;;;;0.70;0.47;;;3.30;99.90;;;;;;5057938;28;20412;-70
2021/12/10 02:42:36;;;;;;;0.70;0.40;;;3.30;99.90;;;;;;5057921;28;20421;-71
2021/12/10 02:45:05;;;;;;;0.70;0.70;;;3.20;99.90;;;;;;5057854;28;20401;-69
2021/12/10 02:47:31;;;;;;;0.70;0.40;;;3.30;99.90;;;;;;5057998;28;20520;-69
2021/12/10 02:49:57;;;;;;;0.70;0.50;;;3.30;99.90;;;;;;5073537;28;20451;-69
2021/12/10 02:52:25;;;;;;;0.70;0.50;;;3.20;99.90;;;;;;5057845;28;20445;-70
2021/12/10 02:54:50;;;;;;;0.70;0.50;;;3.20;99.90;;;;;;5073172;28;20525;-70
2021/12/10 02:57:17;;;;;;;0.67;0.40;;;3.20;99.90;;;;;;5057999;28;20480;-70
2021/12/10 02:59:43;;;;;;;0.70;0.50;;;3.10;99.90;;;;;;5057988;28;20163;-70
2021/12/10 03:02:14;;;;;;;0.70;0.50;;;3.20;99.90;;;;;;5057943;28;20431;-70
2021/12/10 03:04:42;;;;;;;0.70;0.50;;;3.20;99.90;;;;;;5058157;28;20983;-69
2021/12/10 03:07:13;;;;;;;0.70;0.50;;;3.20;99.90;;;;;;5057628;28;20483;-70
2021/12/10 03:09:44;;;;;;;2.83;1.83;;;3.20;99.90;;;;;;5057947;28;20419;-69
2021/12/10 03:12:12;;;;;;;0.70;0.50;;;3.20;99.90;;;;;;5057727;28;20501;-70
2021/12/10 03:14:41;;;;;;;0.70;0.50;;;3.20;99.90;;;;;;5057845;28;20450;-69
2021/12/10 03:17:13;;;;;;;0.70;0.40;;;3.20;99.90;;;;;;5057627;28;20422;-70
2021/12/10 03:19:39;;;;;;;0.63;0.50;;;3.20;99.90;;;;;;5057950;28;20911;-70
2021/12/10 03:22:06;;;;;;;0.70;0.40;;;3.10;99.90;;;;;;5057652;28;20424;-70
2021/12/10 03:24:32;;;;;;;0.70;0.50;;;3.10;99.90;;;;;;5057836;28;20773;-69
2021/12/10 03:27:02;;;;;;;0.70;0.50;;;3.10;99.90;;;;;;5057484;28;20407;-69
2021/12/10 03:29:28;;;;;;;0.67;0.40;;;3.10;99.90;;;;;;5057725;28;20474;-70
2021/12/10 03:31:57;;;;;;;0.60;0.40;;;3.10;99.90;;;;;;5053287;28;20431;-69
2021/12/10 03:34:23;;;;;;;0.70;0.40;;;3.20;99.90;;;;;;5054634;28;20595;-69
2021/12/10 03:36:51;;;;;;;0.63;0.50;;;3.20;99.90;;;;;;5052964;28;20428;-70
2021/12/10 03:39:19;;;;;;;0.60;0.50;;;3.20;99.90;;;;;;5054251;28;20159;-70
2021/12/10 03:41:45;;;;;;;0.70;0.50;;;3.20;99.90;;;;;;5069685;28;20494;-70
2021/12/10 03:44:11;;;;;;;0.70;0.40;;;3.20;99.90;;;;;;5054416;28;20416;-69
2021/12/10 03:46:37;;;;;;;0.70;0.50;;;3.20;99.90;;;;;;5054056;28;20413;-70
2021/12/10 03:49:06;;;;;;;0.70;0.40;;;3.30;99.90;;;;;;5052949;28;20444;-70
2021/12/10 03:51:33;;;;;;;1.53;1.43;;;3.30;99.90;;;;;;5054245;28;20771;-70
2021/12/10 03:53:59;;;;;;;1.17;1.00;;;3.40;99.90;;;;;;5054103;28;20463;-69
2021/12/10 03:56:27;;;;;;;0.70;0.50;;;3.40;99.90;;;;;;5053905;28;20832;-69
2021/12/10 03:58:59;;;;;;;0.70;0.40;;;3.50;99.90;;;;;;5069592;28;20492;-69
2021/12/10 04:01:29;;;;;;;0.70;0.50;;;3.50;99.90;;;;;;5052731;28;20429;-70
2021/12/10 04:03:56;;;;;;;0.60;0.50;;;3.50;99.90;;;;;;5054123;28;20453;-68
2021/12/10 04:06:22;;;;;;;0.70;0.50;;;3.60;99.90;;;;;;5053678;28;20748;-70
2021/12/10 04:08:48;;;;;;;0.70;0.50;;;3.60;99.90;;;;;;5054184;28;20481;-70
2021/12/10 04:11:16;;;;;;;0.70;0.50;;;3.60;99.90;;;;;;5053852;28;20432;-70
2021/12/10 04:13:46;;;;;;;0.70;0.50;;;3.60;99.90;;;;;;5053755;28;20452;-70
2021/12/10 04:16:13;;;;;;;0.70;0.50;;;3.70;99.90;;;;;;5053656;28;20421;-70
2021/12/10 04:18:39;;;;;;;0.60;0.40;;;3.70;99.90;;;;;;5052432;28;20424;-70
2021/12/10 04:21:06;;;;;;;0.70;0.40;;;3.70;99.90;;;;;;5053670;28;20453;-70
2021/12/10 04:23:33;;;;;;;0.60;0.40;;;3.70;99.90;;;;;;5053678;28;20738;-70
2021/12/10 04:25:58;;;;;;;0.70;0.60;;;3.70;99.90;;;;;;5053499;28;20409;-69
2021/12/10 04:28:24;;;;;;;0.70;0.50;;;3.80;99.90;;;;;;5053515;28;20432;-70
2021/12/10 04:30:51;;;;;;;0.70;0.50;;;3.70;99.90;;;;;;5053329;28;20232;-69
2021/12/10 04:33:22;;;;;;;0.70;0.50;;;3.70;99.90;;;;;;5053454;28;20809;-70
2021/12/10 04:35:50;;;;;;;0.70;0.50;;;3.70;99.90;;;;;;5053198;28;20411;-70
2021/12/10 04:38:17;;;;;;;0.70;0.50;;;3.70;99.90;;;;;;5053527;28;20402;-70
2021/12/10 04:40:47;;;;;;;0.63;0.50;;;3.60;99.90;;;;;;5053217;28;20965;-70
2021/12/10 04:43:13;;;;;;;0.70;0.50;;;3.60;99.90;;;;;;5052926;28;20462;-70
2021/12/10 04:45:39;;;;;;;0.70;0.50;;;3.50;99.90;;;;;;5053005;28;20460;-70
2021/12/10 04:48:04;;;;;;;1.53;0.50;;;3.50;99.90;;;;;;5068562;28;20420;-70
2021/12/10 04:50:30;;;;;;;0.70;0.50;;;3.50;99.90;;;;;;5052968;28;20171;-70
2021/12/10 04:52:57;;;;;;;0.70;0.60;;;3.50;99.90;;;;;;5053088;28;20198;-70
2021/12/10 04:55:24;;;;;;;0.70;0.40;;;3.50;99.90;;;;;;5052566;28;20182;-70
2021/12/10 04:57:50;;;;;;;0.70;0.50;;;3.50;99.90;;;;;;5053005;28;20735;-69
2021/12/10 05:00:24;;;;;;;0.70;0.60;;;3.50;99.90;;;;;;5051640;28;20413;-69
2021/12/10 05:02:50;;;;;;;0.70;0.50;;;3.50;99.90;;;;;;5068210;28;20530;-70
2021/12/10 05:05:16;;;;;;;0.70;0.50;;;3.40;99.90;;;;;;5052718;28;20408;-69
2021/12/10 05:07:42;;;;;;;0.60;0.50;;;3.40;99.90;;;;;;5051720;28;20171;-71
2021/12/10 05:10:10;;;;;;;0.60;0.40;;;3.40;99.90;;;;;;5052723;28;20166;-70
2021/12/10 05:12:36;;;;;;;0.67;0.50;;;3.40;99.90;;;;;;5052614;28;20961;-69
2021/12/10 05:15:07;;;;;;;0.60;0.40;;;3.40;99.90;;;;;;5052376;28;20419;-69
2021/12/10 05:17:34;;;;;;;0.70;0.50;;;3.40;99.90;;;;;;5052535;28;20424;-69
2021/12/10 05:20:03;;;;;;;3.40;0.70;;;3.30;99.90;;;;;;5052570;28;20413;-70
2021/12/10 05:22:29;;;;;;;0.70;0.50;;;3.30;99.90;;;;;;5052385;28;20474;-70
2021/12/10 05:24:54;;;;;;;0.70;0.50;;;3.20;99.90;;;;;;5052181;28;20408;-70
2021/12/10 05:27:20;;;;;;;0.70;0.50;;;3.20;99.90;;;;;;5052373;28;20202;-70
2021/12/10 05:29:46;;;;;;;0.70;0.60;;;3.20;99.90;;;;;;5051055;28;20167;-69
2021/12/10 05:32:16;;;;;;;0.60;0.40;;;3.10;99.90;;;;;;5067485;28;20226;-69
2021/12/10 05:34:42;;;;;;;0.60;0.40;;;3.10;99.90;;;;;;5052557;28;20155;-70
2021/12/10 05:37:08;;;;;;;0.80;0.80;;;3.10;99.90;;;;;;5052073;28;20412;-69
2021/12/10 05:39:33;;;;;;;0.70;0.50;;;3.00;99.90;;;;;;5050941;28;20409;-69
2021/12/10 05:42:01;;;;;;;0.70;0.50;;;2.90;99.90;;;;;;5052202;28;20428;-70
2021/12/10 05:44:26;;;;;;;0.70;0.50;;;2.90;99.90;;;;;;5052295;28;20548;-70
2021/12/10 05:46:52;;;;;;;0.70;0.40;;;2.90;99.90;;;;;;5051946;28;20413;-69
2021/12/10 05:49:18;;;;;;;0.70;0.50;;;2.80;99.90;;;;;;5052202;28;20805;-69
2021/12/10 05:51:43;;;;;;;0.63;0.50;;;2.80;99.90;;;;;;5051978;28;20192;-70
2021/12/10 05:54:09;;;;;;;0.70;0.50;;;2.80;99.90;;;;;;5051386;28;20625;-70
2021/12/10 05:56:35;;;;;;;0.70;0.40;;;2.80;99.90;;;;;;5051501;28;20210;-70
2021/12/10 05:59:01;;;;;;;0.70;0.40;;;2.80;99.90;;;;;;5052028;28;20650;-69
2021/12/10 06:01:27;;;;;;;0.77;0.53;;;2.80;99.90;;;;;;5052000;28;20425;-69
2021/12/10 06:03:54;;;;;;;0.70;0.40;;;2.80;99.90;;;;;;5051826;28;20165;-69
2021/12/10 06:06:23;;;;;;;0.70;0.50;;;2.80;99.90;;;;;;5051597;28;20455;-69
2021/12/10 06:08:50;;;;;;;0.70;0.50;;;2.80;99.90;;;;;;5051689;28;20774;-69
2021/12/10 06:11:17;;;;;;;0.70;0.40;;;2.80;99.90;;;;;;5051869;28;20440;-68
2021/12/10 06:13:43;;;;;;;0.70;0.60;;;2.80;99.90;;;;;;5050334;28;21007;-69
2021/12/10 06:16:09;;;;;;;0.60;0.40;;;2.90;99.90;;;;;;5051491;28;20411;-69
2021/12/10 06:18:35;;;;;;;0.60;0.47;;;3.00;99.90;;;;;;5051571;28;20480;-69
2021/12/10 06:21:00;;;;;;;0.70;0.47;;;3.00;99.90;;;;;;5051682;28;20193;-69
2021/12/10 06:23:26;;;;;;;0.90;0.70;;;3.00;99.90;;;;;;5051737;28;20706;-69
2021/12/10 06:25:52;;;;;;;1.37;1.27;;;3.00;99.90;;;;;;5051426;28;20167;-69
2021/12/10 06:28:18;;;;;;;0.67;0.40;;;3.10;99.90;;;;;;5051710;28;20206;-69
2021/12/10 06:30:46;;;;;;;0.70;0.50;;;3.10;99.90;;;;;;5051892;28;20579;-71
2021/12/10 06:33:15;;;;;;;0.60;0.40;;;3.00;99.90;;;;;;5051516;28;20548;-69
2021/12/10 06:35:43;;;;;;;0.63;0.60;;;3.00;99.90;;;;;;5051424;28;20495;-69
2021/12/10 06:38:10;;;;;;;0.60;0.40;;;2.90;99.90;;;;;;5051588;28;20902;-69
2021/12/10 06:40:37;;;;;;;0.70;0.40;;;2.90;99.90;;;;;;5051472;28;20401;-69
2021/12/10 06:43:04;;;;;;;0.73;0.70;;;2.90;99.90;;;;;;5051741;28;20408;-70
2021/12/10 06:45:32;;;;;;;0.60;0.50;;;2.80;99.90;;;;;;5051457;28;20399;-69
2021/12/10 06:48:01;;;;;;;0.70;0.40;;;2.90;99.90;;;;;;5050317;28;20408;-70
2021/12/10 06:50:30;;;;;;;0.60;0.50;;;2.90;99.90;;;;;;5067296;28;20409;-70
2021/12/10 06:52:57;;;;;;;0.70;0.50;;;2.90;99.90;;;;;;5051358;28;20459;-70
2021/12/10 06:55:24;;;;;;;0.60;0.50;;;2.80;99.90;;;;;;5049942;28;20467;-70
2021/12/10 06:57:50;;;;;;;0.60;0.50;;;2.80;99.90;;;;;;5051590;28;20393;-70
2021/12/10 07:00:41;;;;;;;0.67;0.50;;;2.80;99.90;;;;;;5051672;28;20401;-70
2021/12/10 07:03:12;;;;;;;0.70;0.50;;;2.80;99.90;;;;;;5051460;28;20466;-69
2021/12/10 07:05:38;;;;;;;0.73;0.60;;;2.80;99.90;;;;;;5053057;28;20398;-69
2021/12/10 07:08:04;;;;;;;0.63;0.40;;;2.80;99.90;;;;;;5055274;28;20510;-69
2021/12/10 07:10:30;;;;;;;0.70;0.50;;;2.80;99.90;;;;;;5055039;28;20444;-69
2021/12/10 07:12:56;;;;;;;1.17;1.07;;;2.70;99.90;;;;;;5055075;28;20536;-69
2021/12/10 07:15:21;;;;;;;0.60;0.40;;;2.80;99.90;;;;;;5054792;28;20260;-69
2021/12/10 07:17:49;;;;;;;0.67;0.40;;;2.80;99.90;;;;;;5055018;28;20174;-70
2021/12/10 07:20:18;;;;;;;0.63;0.40;;;2.70;99.90;;;;;;5054952;28;20167;-70
2021/12/10 07:22:43;;;;;;;0.70;0.47;;;2.70;99.90;;;;;;5054800;28;20432;-70
2021/12/10 07:25:09;;;;;;;0.70;0.40;;;2.70;99.90;;;;;;5054507;28;20413;-70
2021/12/10 07:27:35;;;;;;;0.70;0.50;;;2.80;99.90;;;;;;5054885;28;20195;-70
2021/12/10 07:30:01;;;;;;;0.70;0.50;;;2.80;99.90;;;;;;5054738;28;20405;-70
2021/12/10 07:32:27;;;;;;;0.70;0.50;;;3.00;99.90;;;;;;5054048;28;20198;-69
2021/12/10 07:34:52;;;;;;;0.70;0.50;;;3.00;99.90;;;;;;5054309;28;20505;-70
2021/12/10 07:37:21;;;;;;;0.70;0.67;;;3.10;99.90;;;;;;5054474;28;20253;-69
2021/12/10 07:39:47;;;;;;;0.70;0.50;;;3.20;99.90;;;;;;5054524;28;20244;-69
2021/12/10 07:42:12;;;;;;;0.70;0.50;;;3.20;99.90;;;;;;5054528;28;20474;-70
2021/12/10 07:44:38;;;;;;;0.70;0.40;;;3.20;99.90;;;;;;5054568;28;20186;-69
2021/12/10 07:47:08;;;;;;;0.67;0.50;;;3.30;99.90;;;;;;5054214;28;20163;-70
2021/12/10 07:49:37;;;;;;;0.70;0.50;;;3.40;99.90;;;;;;5054371;28;20167;-70
2021/12/10 07:52:06;;;;;;;0.67;0.50;;;3.40;99.90;;;;;;5054192;28;20423;-70
2021/12/10 07:54:31;;;;;;;0.60;0.40;;;3.40;99.90;;;;;;5054256;28;20490;-70
2021/12/10 07:56:57;;;;;;;0.90;0.77;;;3.50;99.90;;;;;;5053825;28;21011;-69
2021/12/10 07:59:23;;;;;;;0.70;0.47;;;3.50;99.90;;;;;;5052788;28;20209;-70
2021/12/10 08:01:49;;;;;;;0.60;0.40;;;3.50;99.90;;;;;;5054024;28;20214;-69
2021/12/10 08:04:14;;;;;;;0.60;0.40;;;3.50;99.90;;;;;;5054090;28;20163;-69
2021/12/10 08:06:40;;;;;;;0.70;0.50;;;3.50;99.90;;;;;;5053682;28;20178;-70
2021/12/10 08:09:08;;;;;;;1.47;1.13;;;3.50;99.90;;;;;;5054017;28;20186;-70
2021/12/10 08:11:35;;;;;;;0.60;0.43;;;3.50;99.90;;;;;;5053990;28;20179;-70
2021/12/10 08:14:00;;;;;;;0.60;0.40;;;3.50;99.90;;;;;;5053716;28;20457;-70
2021/12/10 08:16:26;;;;;;;0.67;0.40;;;3.60;99.90;;;;;;5052775;28;20401;-69
2021/12/10 08:18:53;;;;;;;0.60;0.50;;;3.60;99.90;;;;;;5053860;28;20238;-70
2021/12/10 08:21:19;;;;;;;0.60;0.40;;;3.60;99.90;;;;;;5053737;28;20672;-69
2021/12/10 08:23:45;;;;;;;0.60;0.40;;;3.60;99.90;;;;;;5052837;28;20413;-70
2021/12/10 08:26:12;;;;;;;0.63;0.47;;;3.60;99.90;;;;;;5054149;28;20493;-69
2021/12/10 08:28:38;;;;;;;0.70;0.50;;;3.70;99.90;;;;;;5053720;28;20166;-69
2021/12/10 08:31:04;;;;;;;0.70;0.50;;;3.70;99.90;;;;;;5052149;28;20437;-69
2021/12/10 08:33:31;;;;;;;0.70;0.50;;;3.70;99.90;;;;;;5053418;28;20476;-70
2021/12/10 08:36:02;;;;;;;0.70;0.40;;;3.80;99.90;;;;;;5051858;28;20903;-70
2021/12/10 08:38:29;;;;;;;0.70;0.50;;;3.80;99.90;;;;;;5053420;28;20755;-70
2021/12/10 08:40:59;;;;;;;0.60;0.50;;;3.70;99.90;;;;;;5053233;28;20436;-70
2021/12/10 08:43:27;;;;;;;0.70;0.40;;;3.80;99.90;;;;;;5053311;28;20756;-70
2021/12/10 08:45:53;;;;;;;0.70;0.50;;;3.80;99.90;;;;;;5053053;28;20405;-70
2021/12/10 08:48:20;;;;;;;0.70;0.50;;;3.80;99.90;;;;;;5053271;28;20400;-70
2021/12/10 08:50:46;;;;;;;0.70;0.50;;;3.70;99.90;;;;;;5053130;28;20772;-70
2021/12/10 08:53:13;;;;;;;0.70;0.50;;;3.80;99.90;;;;;;5053056;28;20449;-70
2021/12/10 08:55:41;;;;;;;0.70;0.40;;;3.80;99.90;;;;;;5052746;28;20786;-70
2021/12/10 08:58:08;;;;;;;0.70;0.60;;;3.80;99.90;;;;;;5052922;28;20402;-70
2021/12/10 09:00:34;;;;;;;0.70;0.50;;;3.90;99.90;;;;;;5052828;28;20405;-70
2021/12/10 09:03:00;;;;;;;0.70;0.50;;;3.90;99.90;;;;;;5052825;28;20406;-70
2021/12/10 09:05:28;;;;;;;0.70;0.50;;;3.90;99.90;;;;;;5052279;28;20451;-70
2021/12/10 09:07:54;;;;;;;0.60;0.40;;;3.90;99.90;;;;;;5052760;28;20397;-69
2021/12/10 09:10:26;;;;;;;0.70;0.67;;;3.80;99.90;;;;;;5052731;28;20433;-69
2021/12/10 09:12:53;;;;;;;0.60;0.40;;;3.70;99.90;;;;;;5052378;28;20786;-69
2021/12/10 09:15:21;;;;;;;0.80;0.70;;;3.80;99.90;;;;;;5052549;28;20401;-70
2021/12/10 09:17:49;;;;;;;0.70;0.50;;;3.70;99.90;;;;;;5051332;28;20471;-70
2021/12/10 09:20:19;;;;;;;1.57;1.47;;;3.70;99.90;;;;;;5052625;28;20405;-70
2021/12/10 09:22:46;;;;;;;1.43;0.80;;;3.70;99.90;;;;;;5052590;28;20989;-70
2021/12/10 09:25:13;;;;;;;0.70;0.50;;;3.70;99.90;;;;;;5052175;28;20427;-70
2021/12/10 09:27:39;;;;;;;0.70;0.50;;;3.70;99.90;;;;;;5052279;28;20455;-70
2021/12/10 09:30:09;;;;;;;0.60;0.40;;;3.80;99.90;;;;;;5051945;28;20409;-70
2021/12/10 09:32:36;;;;;;;0.70;0.60;;;3.80;99.90;;;;;;5067545;28;20989;-70
2021/12/10 09:35:06;;;;;;;1.00;0.67;;;3.80;99.90;;;;;;5052038;28;20433;-71
2021/12/10 09:37:32;;;;;;;0.70;0.60;;;3.80;99.90;;;;;;5052467;28;20485;-70
2021/12/10 09:39:58;;;;;;;0.70;0.50;;;3.80;99.90;;;;;;5052788;28;20405;-70
2021/12/10 09:42:25;;;;;;;0.70;0.40;;;4.00;99.90;;;;;;5052213;28;20565;-71
2021/12/10 09:44:53;;;;;;;0.60;0.40;;;4.00;99.90;;;;;;5052048;28;20489;-70
2021/12/10 09:47:20;;;;;;;0.80;0.70;;;4.10;99.90;;;;;;5052024;28;20401;-71
2021/12/10 09:49:49;;;;;;;0.67;0.50;;;4.00;99.90;;;;;;5050849;28;20412;-71
2021/12/10 09:52:18;;;;;;;0.87;0.60;;;4.10;99.90;;;;;;5051969;28;20998;-70
2021/12/10 09:54:45;;;;;;;1.37;1.27;;;4.00;99.90;;;;;;5051907;28;20863;-70
2021/12/10 09:57:29;;;;;;;0.70;0.50;;;4.00;99.90;;;;;;5051945;28;20546;-71
2021/12/10 09:59:55;;;;;;;0.60;0.50;;;4.10;99.90;;;;;;5052041;28;20436;-71
2021/12/10 10:02:24;;;;;;;0.70;0.50;;;4.10;99.90;;;;;;5050618;28;20791;-71
2021/12/10 10:04:51;;;;;;;1.20;1.10;;;4.00;99.90;;;;;;5050612;28;20520;-71
2021/12/10 10:07:23;;;;;;;0.70;0.40;;;3.90;99.90;;;;;;5051934;28;20397;-70
2021/12/10 10:09:53;;;;;;;0.70;0.50;;;4.00;99.90;;;;;;5052019;28;20872;-71
2021/12/10 10:12:31;;;;;;;0.70;0.50;;;3.90;99.90;;;;;;5051856;28;20461;-70
2021/12/10 10:15:03;;;;;;;0.70;0.50;;;3.90;99.90;;;;;;5052624;28;20412;-71
2021/12/10 10:17:29;;;;;;;1.73;1.03;;;3.90;99.90;;;;;;5053656;28;20416;-70
2021/12/10 10:19:55;;;;;;;0.70;0.40;;;3.90;99.90;;;;;;5051968;28;20496;-71
2021/12/10 10:22:25;;;;;;;0.70;0.50;;;3.90;99.90;;;;;;5051751;28;20187;-71
2021/12/10 10:24:53;;;;;;;0.70;0.40;;;3.90;99.90;;;;;;5051547;28;20413;-71
2021/12/10 10:27:31;;;;;;;0.70;0.50;;;3.80;99.90;;;;;;5040388;28;20441;-71
2021/12/10 10:30:22;;;;;;;0.70;0.47;;;3.90;99.90;;;;;;5031812;28;20409;-72
2021/12/10 10:32:48;;;;;;;0.70;0.40;;;3.90;99.90;;;;;;5031765;28;20454;-71
2021/12/10 10:35:18;;;;;;;0.70;0.40;;;4.00;99.90;;;;;;5031495;28;20493;-72
2021/12/10 10:37:45;;;;;;;0.70;0.43;;;4.10;99.90;;;;;;5031778;28;20433;-72
2021/12/10 10:40:16;;;;;;;0.70;0.43;;;4.20;99.90;;;;;;5032928;28;20810;-71
2021/12/10 10:42:43;;;;;;;0.70;0.50;;;4.20;99.90;;;;;;5035309;28;20441;-70
2021/12/10 10:45:17;;;;;;;0.90;0.70;;;4.20;99.90;;;;;;5067121;28;20513;-68
2021/12/10 10:47:47;;;;;;;0.70;0.50;;;4.20;99.90;;;;;;5035606;28;20410;-71
2021/12/10 10:50:22;;;;;;;1.30;0.77;;;4.20;99.90;;;;;;5035636;28;20423;-72
2021/12/10 10:52:52;;;;;;;0.70;0.40;;;4.20;99.90;;;;;;5035110;28;20454;-72
2021/12/10 10:55:20;;;;;;;0.70;0.50;;;4.20;99.90;;;;;;5034548;28;20429;-68
2021/12/10 10:58:11;;;;;;;0.70;0.40;;;4.30;99.90;;;;;;5035010;28;20884;-70
2021/12/10 11:00:45;;;;;;;0.70;0.40;;;4.30;99.90;;;;;;5035046;28;20418;-69
2021/12/10 11:03:16;;;;;;;0.70;0.60;;;4.40;99.90;;;;;;5050206;28;20410;-68
2021/12/10 11:05:48;;;;;;;0.70;0.60;;;4.40;99.90;;;;;;5035013;28;20452;-69
2021/12/10 11:08:23;;;;;;;0.70;0.40;;;4.30;99.90;;;;;;5034993;28;20406;-69
2021/12/10 11:10:51;;;;;;;0.80;0.63;;;4.40;99.90;;;;;;5034907;28;20409;-69
2021/12/10 11:13:21;;;;;;;0.70;0.40;;;4.40;99.90;;;;;;5034984;28;20962;-69
2021/12/10 11:16:17;;;;;;;0.70;0.50;;;4.50;99.90;;;;;;5034624;28;20405;-69
2021/12/10 11:18:51;;;;;;;0.70;0.50;;;4.50;99.90;;;;;;5034943;28;20456;-69
2021/12/10 11:21:37;;;;;;;0.70;0.40;;;4.50;99.90;;;;;;5034796;28;20438;-70
2021/12/10 11:24:11;;;;;;;0.70;0.50;;;4.50;99.90;;;;;;5034660;28;20405;-69
2021/12/10 11:27:00;;;;;;;0.70;0.70;;;4.50;99.90;;;;;;5034425;28;20460;-69
2021/12/10 11:29:37;;;;;;;0.70;0.40;;;4.50;99.90;;;;;;5050123;28;20501;-70
2021/12/10 11:32:37;;;;;;;0.70;0.60;;;4.40;99.90;;;;;;5034633;28;20439;-69
2021/12/10 11:35:11;;;;;;;1.33;1.23;;;4.30;99.90;;;;;;5034432;28;20418;-70
2021/12/10 11:37:44;;;;;;;0.70;0.60;;;4.30;99.90;;;;;;5034398;28;20770;-70
2021/12/10 11:40:40;;;;;;;1.10;0.70;;;4.30;99.90;;;;;;5066482;28;20410;-69
2021/12/10 11:43:17;;;;;;;0.70;0.50;;;4.40;99.90;;;;;;5032355;28;20980;-69
2021/12/10 11:45:51;;;;;;;1.10;1.00;;;4.30;99.90;;;;;;5034004;28;20409;-70
2021/12/10 11:48:25;;;;;;;0.70;0.40;;;4.30;99.90;;;;;;5034259;28;20887;-69
2021/12/10 11:51:18;;;;;;;0.70;0.40;;;4.40;99.90;;;;;;5032436;28;20441;-69
2021/12/10 11:53:55;;;;;;;2.60;1.13;;;4.30;99.90;;;;;;5033969;28;20461;-70
2021/12/10 11:56:26;;;;;;;0.70;0.40;;;4.40;99.90;;;;;;5033753;28;20421;-69
2021/12/10 11:59:19;;;;;;;0.70;0.40;;;4.40;99.90;;;;;;5034079;28;20405;-69
2021/12/10 12:02:03;;;;;;;0.70;0.47;;;4.40;99.90;;;;;;5033114;28;20441;-69
2021/12/10 12:04:37;;;;;;;0.70;0.50;;;4.40;99.90;;;;;;5033969;28;20528;-70
2021/12/10 12:07:33;;;;;;;0.90;0.80;;;4.40;99.90;;;;;;5033788;28;20501;-69
2021/12/10 12:10:18;;;;;;;0.70;0.43;;;4.40;99.90;;;;;;5033885;28;20434;-70
2021/12/10 12:15:42;;;;;;;0.73;0.60;;;4.40;99.90;;;;;;5032788;28;20484;-70
2021/12/10 12:18:14;;;;;;;0.70;0.50;;;4.50;99.90;;;;;;5033712;28;20406;-70
2021/12/10 12:20:46;;;;;;;0.70;0.50;;;4.50;99.90;;;;;;5033734;28;20398;-70
2021/12/10 12:26:21;;;;;;;0.70;0.50;;;4.50;99.90;;;;;;5033592;28;20471;-70
2021/12/10 12:28:49;;;;;;;0.70;0.50;;;4.60;99.90;;;;;;5033649;28;20410;-70
2021/12/10 12:31:28;;;;;;;0.70;0.50;;;4.50;99.90;;;;;;5033164;28;20426;-70
2021/12/10 12:34:05;;;;;;;0.70;0.50;;;4.50;99.90;;;;;;5033512;28;20492;-69
2021/12/10 12:36:51;;;;;;;0.70;0.50;;;4.50;99.90;;;;;;5033261;28;20489;-70
2021/12/10 12:39:30;;;;;;;0.70;0.50;;;4.50;99.90;;;;;;5033488;28;20885;-69
2021/12/10 12:41:59;;;;;;;0.70;0.50;;;4.50;99.90;;;;;;5033466;28;20500;-69
2021/12/10 12:44:34;;;;;;;0.70;0.50;;;4.50;99.90;;;;;;5033406;28;20410;-69
2021/12/10 12:47:14;;;;;;;0.70;0.43;;;4.50;99.90;;;;;;5033202;28;20406;-70
2021/12/10 12:49:49;;;;;;;0.70;0.50;;;4.50;99.90;;;;;;5033478;28;20410;-70
2021/12/10 12:52:29;;;;;;;1.90;1.13;;;4.40;99.90;;;;;;5033129;28;20457;-69
2021/12/10 12:55:18;;;;;;;0.70;0.40;;;4.40;99.90;;;;;;5032833;28;20433;-70
2021/12/10 12:57:50;;;;;;;0.70;0.50;;;4.40;99.90;;;;;;5033125;28;20489;-70
2021/12/10 13:00:25;;;;;;;0.70;0.40;;;4.30;99.90;;;;;;5033269;28;20401;-70
2021/12/10 13:02:53;;;;;;;0.70;0.60;;;4.30;99.90;;;;;;5032889;28;20855;-69
2021/12/10 13:05:29;;;;;;;0.70;0.40;;;4.40;99.90;;;;;;5032725;28;20425;-69
2021/12/10 13:08:23;;;;;;;0.70;0.40;;;4.30;99.90;;;;;;5031798;28;20458;-70
2021/12/10 13:11:26;;;;;;;0.70;0.50;;;4.30;99.90;;;;;;5032643;28;21109;-70
2021/12/10 13:14:11;;;;;;;0.70;0.50;;;4.20;99.90;;;;;;5032879;28;20503;-70
2021/12/10 13:16:45;;;;;;;0.70;0.40;;;4.10;99.90;;;;;;5032634;28;20394;-70
2021/12/10 13:19:16;;;;;;;0.70;0.40;;;4.10;99.90;;;;;;5032913;28;20397;-70
2021/12/10 13:21:44;;;;;;;0.70;0.40;;;4.00;99.90;;;;;;5064571;28;20521;-70
2021/12/10 13:24:12;;;;;;;1.20;1.10;;;4.00;99.90;;;;;;5032715;28;20405;-70
2021/12/10 13:26:38;;;;;;;0.70;0.50;;;4.00;99.90;;;;;;5032432;28;20615;-70